sensor_id;sensor_type;location;lat;lon;timestamp;pressure;altitude;pressure_sealevel;temperature;humidity
12951;BME280;6540;50.858;7.232;2024-01-15T00:01:06;52062.34;;;-142.34;35.06
12951;BME280;6540;50.858;7.232;2024-01-15T00:03:32;52064.34;;;-142.34;36.49
12951;BME280;6540;50.858;7.232;2024-01-15T00:05:57;52064.34;;;-142.34;34.38
12951;BME280;6540;50.858;7.232;2024-01-15T00:08:22;52094.59;;;-142.34;35.11
12951;BME280;6540;50.858;7.232;2024-01-15T00:10:47;52040.13;;;-142.34;35.88
12951;BME280;6540;50.858;7.232;2024-01-15T00:13:13;52096.63;;;-142.34;36.02
12951;BME280;6540;50.858;7.232;2024-01-15T00:15:38;52044.19;;;-142.34;34.89
12951;BME280;6540;50.858;7.232;2024-01-15T00:18:04;52048.22;;;-142.34;34.89
12951;BME280;6540;50.858;7.232;2024-01-15T00:20:29;52096.63;;;-142.34;36.63
12951;BME280;6540;50.858;7.232;2024-01-15T00:22:55;52070.41;;;-142.34;37.42
12951;BME280;6540;50.858;7.232;2024-01-15T00:25:20;52072.41;;;-142.34;35.49
12951;BME280;6540;50.858;7.232;2024-01-15T00:27:45;52084.53;;;-142.34;36.52
12951;BME280;6540;50.858;7.232;2024-01-15T00:30:11;52050.22;;;-142.34;37.53
12951;BME280;6540;50.858;7.232;2024-01-15T00:32:36;52052.25;;;-142.34;35.83
12951;BME280;6540;50.858;7.232;2024-01-15T00:35:02;52068.38;;;-142.34;36.06
12951;BME280;6540;50.858;7.232;2024-01-15T00:37:28;52048.22;;;-142.34;36.03
12951;BME280;6540;50.858;7.232;2024-01-15T00:39:53;52102.69;;;-142.34;36.07
12951;BME280;6540;50.858;7.232;2024-01-15T00:42:19;52044.19;;;-142.34;36.38
12951;BME280;6540;50.858;7.232;2024-01-15T00:44:44;52056.28;;;-142.34;35.25
12951;BME280;6540;50.858;7.232;2024-01-15T00:47:09;52088.56;;;-142.34;35.04
12951;BME280;6540;50.858;7.232;2024-01-15T00:49:35;52104.69;;;-142.34;34.96
12951;BME280;6540;50.858;7.232;2024-01-15T00:52:00;52080.50;;;-142.34;34.70
12951;BME280;6540;50.858;7.232;2024-01-15T00:54:26;52084.53;;;-142.34;35.65
12951;BME280;6540;50.858;7.232;2024-01-15T00:56:51;52096.63;;;-142.34;36.83
12951;BME280;6540;50.858;7.232;2024-01-15T00:59:17;52088.56;;;-142.34;36.75
12951;BME280;6540;50.858;7.232;2024-01-15T01:01:43;52070.41;;;-142.34;36.92
12951;BME280;6540;50.858;7.232;2024-01-15T01:04:09;52066.38;;;-142.34;36.83
12951;BME280;6540;50.858;7.232;2024-01-15T01:06:35;52062.34;;;-142.34;38.38
12951;BME280;6540;50.858;7.232;2024-01-15T01:09:00;52100.66;;;-142.34;37.83
12951;BME280;6540;50.858;7.232;2024-01-15T01:11:25;52084.53;;;-142.34;38.12
12951;BME280;6540;50.858;7.232;2024-01-15T01:13:51;52066.38;;;-142.34;37.88
12951;BME280;6540;50.858;7.232;2024-01-15T01:16:16;52040.13;;;-142.34;36.85
12951;BME280;6540;50.858;7.232;2024-01-15T01:18:42;52108.72;;;-142.34;36.16
12951;BME280;6540;50.858;7.232;2024-01-15T01:21:07;52082.50;;;-142.34;36.04
12951;BME280;6540;50.858;7.232;2024-01-15T01:23:32;52094.59;;;-142.34;36.42
12951;BME280;6540;50.858;7.232;2024-01-15T01:25:58;52096.63;;;-142.34;37.54
12951;BME280;6540;50.858;7.232;2024-01-15T01:28:23;52088.56;;;-142.34;36.96
12951;BME280;6540;50.858;7.232;2024-01-15T01:30:48;52044.19;;;-142.34;37.93
12951;BME280;6540;50.858;7.232;2024-01-15T01:33:14;52072.41;;;-142.34;37.12
12951;BME280;6540;50.858;7.232;2024-01-15T01:35:39;52090.56;;;-142.34;36.36
12951;BME280;6540;50.858;7.232;2024-01-15T01:38:04;52052.25;;;-142.34;36.83
12951;BME280;6540;50.858;7.232;2024-01-15T01:40:30;52076.44;;;-142.34;35.96
12951;BME280;6540;50.858;7.232;2024-01-15T01:42:55;52088.56;;;-142.34;35.22
12951;BME280;6540;50.858;7.232;2024-01-15T01:45:20;52074.44;;;-142.34;36.44
12951;BME280;6540;50.858;7.232;2024-01-15T01:47:46;52088.56;;;-142.34;37.03
12951;BME280;6540;50.858;7.232;2024-01-15T01:50:12;52072.41;;;-142.34;36.99
12951;BME280;6540;50.858;7.232;2024-01-15T01:52:39;52052.25;;;-142.34;37.50
12951;BME280;6540;50.858;7.232;2024-01-15T01:55:06;52088.56;;;-142.34;36.83
12951;BME280;6540;50.858;7.232;2024-01-15T01:57:32;52084.53;;;-142.34;36.61
12951;BME280;6540;50.858;7.232;2024-01-15T02:00:00;52064.34;;;-142.34;37.24
12951;BME280;6540;50.858;7.232;2024-01-15T02:02:25;52072.41;;;-142.34;36.68
12951;BME280;6540;50.858;7.232;2024-01-15T02:04:51;52070.41;;;-142.34;37.59
12951;BME280;6540;50.858;7.232;2024-01-15T02:07:16;52080.50;;;-142.34;37.09
12951;BME280;6540;50.858;7.232;2024-01-15T02:09:44;52082.50;;;-142.34;37.00
12951;BME280;6540;50.858;7.232;2024-01-15T02:12:09;52098.66;;;-142.34;35.68
12951;BME280;6540;50.858;7.232;2024-01-15T02:14:35;52072.41;;;-142.34;35.59
12951;BME280;6540;50.858;7.232;2024-01-15T02:17:00;52114.78;;;-142.34;35.51
12951;BME280;6540;50.858;7.232;2024-01-15T02:19:25;52052.25;;;-142.34;35.83
12951;BME280;6540;50.858;7.232;2024-01-15T02:21:51;52068.38;;;-142.34;35.23
12951;BME280;6540;50.858;7.232;2024-01-15T02:24:16;52088.56;;;-142.34;36.61
12951;BME280;6540;50.858;7.232;2024-01-15T02:26:42;52096.63;;;-142.34;35.76
12951;BME280;6540;50.858;7.232;2024-01-15T02:29:07;52068.38;;;-142.34;34.93
12951;BME280;6540;50.858;7.232;2024-01-15T02:31:36;52106.72;;;-142.34;36.31
12951;BME280;6540;50.858;7.232;2024-01-15T02:34:01;52086.53;;;-142.34;36.44
12951;BME280;6540;50.858;7.232;2024-01-15T02:36:27;52072.41;;;-142.34;36.49
12951;BME280;6540;50.858;7.232;2024-01-15T02:38:52;52066.38;;;-142.34;35.65
12951;BME280;6540;50.858;7.232;2024-01-15T02:41:17;52106.72;;;-142.34;36.25
12951;BME280;6540;50.858;7.232;2024-01-15T02:43:43;52072.41;;;-142.34;36.64
12951;BME280;6540;50.858;7.232;2024-01-15T02:46:08;52078.47;;;-142.34;37.18
12951;BME280;6540;50.858;7.232;2024-01-15T02:48:33;52076.44;;;-142.34;36.78
12951;BME280;6540;50.858;7.232;2024-01-15T02:51:00;52056.28;;;-142.34;36.37
12951;BME280;6540;50.858;7.232;2024-01-15T02:53:26;52088.56;;;-142.34;36.46
12951;BME280;6540;50.858;7.232;2024-01-15T02:55:51;52060.31;;;-142.34;35.59
12951;BME280;6540;50.858;7.232;2024-01-15T02:58:16;52102.69;;;-142.34;37.30
12951;BME280;6540;50.858;7.232;2024-01-15T03:00:42;52110.75;;;-142.34;36.17
12951;BME280;6540;50.858;7.232;2024-01-15T03:03:07;52086.53;;;-142.34;37.42
12951;BME280;6540;50.858;7.232;2024-01-15T03:05:33;52102.69;;;-142.34;37.97
12951;BME280;6540;50.858;7.232;2024-01-15T03:07:58;52108.72;;;-142.34;37.38
12951;BME280;6540;50.858;7.232;2024-01-15T03:10:24;52084.53;;;-142.34;37.61
12951;BME280;6540;50.858;7.232;2024-01-15T03:12:49;52044.19;;;-142.34;35.93
12951;BME280;6540;50.858;7.232;2024-01-15T03:15:14;52114.78;;;-142.34;36.54
12951;BME280;6540;50.858;7.232;2024-01-15T03:17:41;52088.56;;;-142.34;36.58
12951;BME280;6540;50.858;7.232;2024-01-15T03:20:08;52076.44;;;-142.34;36.16
12951;BME280;6540;50.858;7.232;2024-01-15T03:22:33;52074.44;;;-142.34;35.51
12951;BME280;6540;50.858;7.232;2024-01-15T03:24:59;52096.63;;;-142.34;36.45
12951;BME280;6540;50.858;7.232;2024-01-15T03:27:24;52066.38;;;-142.34;36.26
12951;BME280;6540;50.858;7.232;2024-01-15T03:29:51;52064.34;;;-142.34;35.65
12951;BME280;6540;50.858;7.232;2024-01-15T03:32:16;52102.69;;;-142.34;35.68
12951;BME280;6540;50.858;7.232;2024-01-15T03:34:42;52052.25;;;-142.34;35.78
12951;BME280;6540;50.858;7.232;2024-01-15T03:37:07;52108.72;;;-142.34;36.25
12951;BME280;6540;50.858;7.232;2024-01-15T03:39:32;52066.38;;;-142.34;37.33
12951;BME280;6540;50.858;7.232;2024-01-15T03:41:58;52088.56;;;-142.34;37.94
12951;BME280;6540;50.858;7.232;2024-01-15T03:44:23;52084.53;;;-142.34;35.82
12951;BME280;6540;50.858;7.232;2024-01-15T03:46:48;52090.56;;;-142.34;36.85
12951;BME280;6540;50.858;7.232;2024-01-15T03:49:14;52064.34;;;-142.34;36.01
12951;BME280;6540;50.858;7.232;2024-01-15T03:51:39;52096.63;;;-142.34;35.74
12951;BME280;6540;50.858;7.232;2024-01-15T03:54:05;52076.44;;;-142.34;36.66
12951;BME280;6540;50.858;7.232;2024-01-15T03:56:30;52100.66;;;-142.34;37.16
12951;BME280;6540;50.858;7.232;2024-01-15T03:58:55;52092.59;;;-142.34;35.30
12951;BME280;6540;50.858;7.232;2024-01-15T04:01:20;52084.53;;;-142.34;34.73
12951;BME280;6540;50.858;7.232;2024-01-15T04:03:46;52090.56;;;-142.34;36.05
12951;BME280;6540;50.858;7.232;2024-01-15T04:06:11;52076.44;;;-142.34;35.36
12951;BME280;6540;50.858;7.232;2024-01-15T04:08:36;52141.00;;;-142.34;37.16
12951;BME280;6540;50.858;7.232;2024-01-15T04:11:02;52092.59;;;-142.34;35.29
12951;BME280;6540;50.858;7.232;2024-01-15T04:13:27;52100.66;;;-142.34;35.04
12951;BME280;6540;50.858;7.232;2024-01-15T04:15:53;52076.44;;;-142.34;36.26
12951;BME280;6540;50.858;7.232;2024-01-15T04:18:18;52108.72;;;-142.34;35.87
12951;BME280;6540;50.858;7.232;2024-01-15T04:20:43;52120.84;;;-142.34;35.72
12951;BME280;6540;50.858;7.232;2024-01-15T04:23:09;52098.66;;;-142.34;36.04
12951;BME280;6540;50.858;7.232;2024-01-15T04:25:34;52072.41;;;-142.34;35.87
12951;BME280;6540;50.858;7.232;2024-01-15T04:28:00;52088.56;;;-142.34;35.71
12951;BME280;6540;50.858;7.232;2024-01-15T04:30:25;52094.59;;;-142.34;35.12
12951;BME280;6540;50.858;7.232;2024-01-15T04:32:51;52078.47;;;-142.34;35.73
12951;BME280;6540;50.858;7.232;2024-01-15T04:35:16;52114.78;;;-142.34;35.68
12951;BME280;6540;50.858;7.232;2024-01-15T04:37:41;52092.59;;;-142.34;34.79
12951;BME280;6540;50.858;7.232;2024-01-15T04:40:07;52124.88;;;-142.34;35.96
12951;BME280;6540;50.858;7.232;2024-01-15T04:42:33;52084.53;;;-142.34;34.86
12951;BME280;6540;50.858;7.232;2024-01-15T04:44:59;52120.84;;;-142.34;34.02
12951;BME280;6540;50.858;7.232;2024-01-15T04:47:24;52084.53;;;-142.34;34.23
12951;BME280;6540;50.858;7.232;2024-01-15T04:49:49;52068.38;;;-142.34;34.30
12951;BME280;6540;50.858;7.232;2024-01-15T04:52:15;52104.69;;;-142.34;35.22
12951;BME280;6540;50.858;7.232;2024-01-15T04:54:40;52126.88;;;-142.34;35.48
12951;BME280;6540;50.858;7.232;2024-01-15T04:57:06;52106.72;;;-142.34;34.31
12951;BME280;6540;50.858;7.232;2024-01-15T04:59:31;52080.50;;;-142.34;35.58
12951;BME280;6540;50.858;7.232;2024-01-15T05:01:57;52104.69;;;-142.34;34.15
12951;BME280;6540;50.858;7.232;2024-01-15T05:04:22;52108.72;;;-142.34;35.83
12951;BME280;6540;50.858;7.232;2024-01-15T05:06:47;52108.72;;;-142.34;34.01
12951;BME280;6540;50.858;7.232;2024-01-15T05:09:13;52088.56;;;-142.34;34.85
12951;BME280;6540;50.858;7.232;2024-01-15T05:11:39;52092.59;;;-142.34;34.94
12951;BME280;6540;50.858;7.232;2024-01-15T05:14:04;52096.63;;;-142.34;33.75
12951;BME280;6540;50.858;7.232;2024-01-15T05:16:30;52092.59;;;-142.34;33.61
12951;BME280;6540;50.858;7.232;2024-01-15T05:18:55;52104.69;;;-142.34;33.47
12951;BME280;6540;50.858;7.232;2024-01-15T05:21:20;52139.00;;;-142.34;33.78
12951;BME280;6540;50.858;7.232;2024-01-15T05:23:46;52136.97;;;-142.34;35.30
12951;BME280;6540;50.858;7.232;2024-01-15T05:26:11;52108.72;;;-142.34;36.34
12951;BME280;6540;50.858;7.232;2024-01-15T05:28:37;52149.06;;;-142.34;34.86
12951;BME280;6540;50.858;7.232;2024-01-15T05:31:02;52100.66;;;-142.34;34.75
12951;BME280;6540;50.858;7.232;2024-01-15T05:33:29;52088.56;;;-142.34;34.46
12951;BME280;6540;50.858;7.232;2024-01-15T05:35:54;52100.66;;;-142.34;35.31
12951;BME280;6540;50.858;7.232;2024-01-15T05:38:20;52100.66;;;-142.34;34.95
12951;BME280;6540;50.858;7.232;2024-01-15T05:40:45;52090.56;;;-142.34;35.98
12951;BME280;6540;50.858;7.232;2024-01-15T05:43:11;52062.34;;;-142.34;34.43
12951;BME280;6540;50.858;7.232;2024-01-15T05:45:38;52102.69;;;-142.34;35.01
12951;BME280;6540;50.858;7.232;2024-01-15T05:48:03;52104.69;;;-142.34;34.28
12951;BME280;6540;50.858;7.232;2024-01-15T05:50:29;52068.38;;;-142.34;35.30
12951;BME280;6540;50.858;7.232;2024-01-15T05:52:54;52112.75;;;-142.34;34.56
12951;BME280;6540;50.858;7.232;2024-01-15T05:55:19;52094.59;;;-142.34;35.77
12951;BME280;6540;50.858;7.232;2024-01-15T05:57:45;52102.69;;;-142.34;35.64
12951;BME280;6540;50.858;7.232;2024-01-15T06:00:11;52054.25;;;-142.34;34.69
12951;BME280;6540;50.858;7.232;2024-01-15T06:02:39;52136.97;;;-142.34;34.49
12951;BME280;6540;50.858;7.232;2024-01-15T06:05:04;52080.50;;;-142.34;34.48
12951;BME280;6540;50.858;7.232;2024-01-15T06:07:31;52153.13;;;-142.34;35.27
12951;BME280;6540;50.858;7.232;2024-01-15T06:09:56;52116.81;;;-142.34;35.18
12951;BME280;6540;50.858;7.232;2024-01-15T06:12:22;52076.44;;;-142.34;35.33
12951;BME280;6540;50.858;7.232;2024-01-15T06:14:48;52100.66;;;-142.34;35.48
12951;BME280;6540;50.858;7.232;2024-01-15T06:17:20;52072.41;;;-142.34;35.18
12951;BME280;6540;50.858;7.232;2024-01-15T06:19:45;52084.53;;;-142.34;34.31
12951;BME280;6540;50.858;7.232;2024-01-15T06:22:10;52088.56;;;-142.34;34.93
12951;BME280;6540;50.858;7.232;2024-01-15T06:24:35;52153.13;;;-142.34;35.12
12951;BME280;6540;50.858;7.232;2024-01-15T06:27:01;52096.63;;;-142.34;34.60
12951;BME280;6540;50.858;7.232;2024-01-15T06:29:28;52139.00;;;-142.34;34.29
12951;BME280;6540;50.858;7.232;2024-01-15T06:31:53;52082.50;;;-142.34;34.70
12951;BME280;6540;50.858;7.232;2024-01-15T06:34:19;52082.50;;;-142.34;35.01
12951;BME280;6540;50.858;7.232;2024-01-15T06:36:44;52136.97;;;-142.34;36.83
12951;BME280;6540;50.858;7.232;2024-01-15T06:39:10;52096.63;;;-142.34;36.83
12951;BME280;6540;50.858;7.232;2024-01-15T06:41:35;52108.72;;;-142.34;36.69
12951;BME280;6540;50.858;7.232;2024-01-15T06:44:02;52088.56;;;-142.34;37.12
12951;BME280;6540;50.858;7.232;2024-01-15T06:46:28;52056.28;;;-142.34;35.85
12951;BME280;6540;50.858;7.232;2024-01-15T06:48:53;52076.44;;;-142.34;35.48
12951;BME280;6540;50.858;7.232;2024-01-15T06:51:18;52122.84;;;-142.34;34.77
12951;BME280;6540;50.858;7.232;2024-01-15T06:53:44;52124.88;;;-142.34;34.91
12951;BME280;6540;50.858;7.232;2024-01-15T06:56:09;52088.56;;;-142.34;35.36
12951;BME280;6540;50.858;7.232;2024-01-15T06:58:34;52072.41;;;-142.34;34.85
12951;BME280;6540;50.858;7.232;2024-01-15T07:01:00;52104.69;;;-142.34;36.20
12951;BME280;6540;50.858;7.232;2024-01-15T07:03:25;52108.72;;;-142.34;34.07
12951;BME280;6540;50.858;7.232;2024-01-15T07:05:50;52068.38;;;-142.34;35.13
12951;BME280;6540;50.858;7.232;2024-01-15T07:08:16;52116.81;;;-142.34;36.51
12951;BME280;6540;50.858;7.232;2024-01-15T07:10:41;52084.53;;;-142.34;34.83
12951;BME280;6540;50.858;7.232;2024-01-15T07:13:06;52092.59;;;-142.34;35.91
12951;BME280;6540;50.858;7.232;2024-01-15T07:15:32;52104.69;;;-142.34;36.11
12951;BME280;6540;50.858;7.232;2024-01-15T07:17:57;52116.81;;;-142.34;35.62
12951;BME280;6540;50.858;7.232;2024-01-15T07:20:22;52124.88;;;-142.34;36.37
12951;BME280;6540;50.858;7.232;2024-01-15T07:22:49;52056.28;;;-142.34;36.66
12951;BME280;6540;50.858;7.232;2024-01-15T07:25:15;52104.69;;;-142.34;35.93
12951;BME280;6540;50.858;7.232;2024-01-15T07:27:41;52100.66;;;-142.34;35.61
12951;BME280;6540;50.858;7.232;2024-01-15T07:30:13;52098.66;;;-142.34;35.77
12951;BME280;6540;50.858;7.232;2024-01-15T07:32:38;52098.66;;;-142.34;37.11
12951;BME280;6540;50.858;7.232;2024-01-15T07:35:04;52088.56;;;-142.34;36.77
12951;BME280;6540;50.858;7.232;2024-01-15T07:37:31;52096.63;;;-142.34;36.46
12951;BME280;6540;50.858;7.232;2024-01-15T07:39:56;52104.69;;;-142.34;36.65
12951;BME280;6540;50.858;7.232;2024-01-15T07:42:21;52104.69;;;-142.34;35.84
12951;BME280;6540;50.858;7.232;2024-01-15T07:44:46;52132.94;;;-142.34;36.61
12951;BME280;6540;50.858;7.232;2024-01-15T07:47:12;52066.38;;;-142.34;36.82
12951;BME280;6540;50.858;7.232;2024-01-15T07:49:37;52120.84;;;-142.34;35.94
12951;BME280;6540;50.858;7.232;2024-01-15T07:52:03;52108.72;;;-142.34;36.81
12951;BME280;6540;50.858;7.232;2024-01-15T07:54:30;52100.66;;;-142.34;36.22
12951;BME280;6540;50.858;7.232;2024-01-15T07:57:00;52094.59;;;-142.34;37.63
12951;BME280;6540;50.858;7.232;2024-01-15T07:59:26;52072.41;;;-142.34;36.36
12951;BME280;6540;50.858;7.232;2024-01-15T08:01:52;52080.50;;;-142.34;36.41
12951;BME280;6540;50.858;7.232;2024-01-15T08:04:18;52104.69;;;-142.34;35.93
12951;BME280;6540;50.858;7.232;2024-01-15T08:06:44;52096.63;;;-142.34;36.40
12951;BME280;6540;50.858;7.232;2024-01-15T08:09:10;52080.50;;;-142.34;36.16
12951;BME280;6540;50.858;7.232;2024-01-15T08:11:35;52076.44;;;-142.34;34.92
12951;BME280;6540;50.858;7.232;2024-01-15T08:14:01;52092.59;;;-142.34;36.73
12951;BME280;6540;50.858;7.232;2024-01-15T08:16:26;52108.72;;;-142.34;36.20
12951;BME280;6540;50.858;7.232;2024-01-15T08:18:53;52116.81;;;-142.34;35.26
12951;BME280;6540;50.858;7.232;2024-01-15T08:21:19;52098.66;;;-142.34;34.58
12951;BME280;6540;50.858;7.232;2024-01-15T08:23:44;52128.91;;;-142.34;35.72
12951;BME280;6540;50.858;7.232;2024-01-15T08:26:10;52136.97;;;-142.34;34.84
12951;BME280;6540;50.858;7.232;2024-01-15T08:28:35;52110.75;;;-142.34;35.47
12951;BME280;6540;50.858;7.232;2024-01-15T08:31:01;52090.56;;;-142.34;35.01
12951;BME280;6540;50.858;7.232;2024-01-15T08:33:26;52104.69;;;-142.34;34.83
12951;BME280;6540;50.858;7.232;2024-01-15T08:35:51;52122.84;;;-142.34;35.05
12951;BME280;6540;50.858;7.232;2024-01-15T08:38:18;52082.50;;;-142.34;35.77
12951;BME280;6540;50.858;7.232;2024-01-15T08:40:44;52058.28;;;-142.34;35.72
12951;BME280;6540;50.858;7.232;2024-01-15T08:43:09;52136.97;;;-142.34;35.55
12951;BME280;6540;50.858;7.232;2024-01-15T08:45:35;52084.53;;;-142.34;35.64
12951;BME280;6540;50.858;7.232;2024-01-15T08:48:00;52086.53;;;-142.34;36.54
12951;BME280;6540;50.858;7.232;2024-01-15T08:50:26;52112.75;;;-142.34;35.56
12951;BME280;6540;50.858;7.232;2024-01-15T08:52:51;52114.78;;;-142.34;36.00
12951;BME280;6540;50.858;7.232;2024-01-15T08:55:17;52080.50;;;-142.34;36.23
12951;BME280;6540;50.858;7.232;2024-01-15T08:57:42;52038.13;;;-142.34;35.25
12951;BME280;6540;50.858;7.232;2024-01-15T09:00:08;52072.41;;;-142.34;34.66
12951;BME280;6540;50.858;7.232;2024-01-15T09:02:34;52116.81;;;-142.34;35.55
12951;BME280;6540;50.858;7.232;2024-01-15T09:05:00;52096.63;;;-142.34;34.87
12951;BME280;6540;50.858;7.232;2024-01-15T09:07:26;52078.47;;;-142.34;35.11
12951;BME280;6540;50.858;7.232;2024-01-15T09:09:52;52088.56;;;-142.34;35.62
12951;BME280;6540;50.858;7.232;2024-01-15T09:12:17;52108.72;;;-142.34;36.47
12951;BME280;6540;50.858;7.232;2024-01-15T09:14:43;52108.72;;;-142.34;36.00
12951;BME280;6540;50.858;7.232;2024-01-15T09:17:09;52132.94;;;-142.34;36.14
12951;BME280;6540;50.858;7.232;2024-01-15T09:19:35;52100.66;;;-142.34;34.32
12951;BME280;6540;50.858;7.232;2024-01-15T09:22:00;52104.69;;;-142.34;35.77
12951;BME280;6540;50.858;7.232;2024-01-15T09:24:26;52098.66;;;-142.34;35.64
12951;BME280;6540;50.858;7.232;2024-01-15T09:26:51;52120.84;;;-142.34;35.57
12951;BME280;6540;50.858;7.232;2024-01-15T09:29:16;52078.47;;;-142.34;35.85
12951;BME280;6540;50.858;7.232;2024-01-15T09:31:43;52139.00;;;-142.34;35.79
12951;BME280;6540;50.858;7.232;2024-01-15T09:34:08;52112.75;;;-142.34;35.90
12951;BME280;6540;50.858;7.232;2024-01-15T09:36:39;52116.81;;;-142.34;37.05
12951;BME280;6540;50.858;7.232;2024-01-15T09:39:05;52100.66;;;-142.34;37.00
12951;BME280;6540;50.858;7.232;2024-01-15T09:41:34;52080.50;;;-142.34;37.43
12951;BME280;6540;50.858;7.232;2024-01-15T09:44:00;52060.31;;;-142.34;36.46
12951;BME280;6540;50.858;7.232;2024-01-15T09:46:25;52132.94;;;-142.34;36.97
12951;BME280;6540;50.858;7.232;2024-01-15T09:48:50;52076.44;;;-142.34;36.97
12951;BME280;6540;50.858;7.232;2024-01-15T09:51:16;52110.75;;;-142.34;36.72
12951;BME280;6540;50.858;7.232;2024-01-15T09:53:43;52068.38;;;-142.34;37.54
12951;BME280;6540;50.858;7.232;2024-01-15T09:56:10;52092.59;;;-142.34;38.03
12951;BME280;6540;50.858;7.232;2024-01-15T09:58:35;52064.34;;;-142.34;36.97
12951;BME280;6540;50.858;7.232;2024-01-15T10:01:02;52084.53;;;-142.34;37.95
12951;BME280;6540;50.858;7.232;2024-01-15T10:03:28;52094.59;;;-142.34;36.61
12951;BME280;6540;50.858;7.232;2024-01-15T10:05:54;52068.38;;;-142.34;36.62
12951;BME280;6540;50.858;7.232;2024-01-15T10:08:20;52084.53;;;-142.34;35.91
12951;BME280;6540;50.858;7.232;2024-01-15T10:10:47;52106.72;;;-142.34;39.33
12951;BME280;6540;50.858;7.232;2024-01-15T10:13:12;52116.81;;;-142.34;39.55
12951;BME280;6540;50.858;7.232;2024-01-15T10:15:38;52068.38;;;-142.34;38.32
12951;BME280;6540;50.858;7.232;2024-01-15T10:18:04;52088.56;;;-142.34;36.10
12951;BME280;6540;50.858;7.232;2024-01-15T10:20:31;52096.63;;;-142.34;38.10
12951;BME280;6540;50.858;7.232;2024-01-15T10:22:57;52084.53;;;-142.34;38.93
12951;BME280;6540;50.858;7.232;2024-01-15T10:25:24;52072.41;;;-142.34;37.95
12951;BME280;6540;50.858;7.232;2024-01-15T10:28:01;52094.59;;;-142.34;38.56
12951;BME280;6540;50.858;7.232;2024-01-15T10:30:27;52078.47;;;-142.34;37.50
12951;BME280;6540;50.858;7.232;2024-01-15T10:33:00;52084.53;;;-142.34;37.84
12951;BME280;6540;50.858;7.232;2024-01-15T10:35:34;52060.31;;;-142.34;36.23
12951;BME280;6540;50.858;7.232;2024-01-15T10:38:00;52070.41;;;-142.34;37.85
12951;BME280;6540;50.858;7.232;2024-01-15T10:40:25;52072.41;;;-142.34;38.21
12951;BME280;6540;50.858;7.232;2024-01-15T10:42:51;52084.53;;;-142.34;37.89
12951;BME280;6540;50.858;7.232;2024-01-15T10:45:17;52076.44;;;-142.34;37.44
12951;BME280;6540;50.858;7.232;2024-01-15T10:47:43;52076.44;;;-142.34;36.03
12951;BME280;6540;50.858;7.232;2024-01-15T10:50:09;52088.56;;;-142.34;37.36
12951;BME280;6540;50.858;7.232;2024-01-15T10:52:36;52082.50;;;-142.34;37.77
12951;BME280;6540;50.858;7.232;2024-01-15T10:55:03;52070.41;;;-142.34;36.39
12951;BME280;6540;50.858;7.232;2024-01-15T10:57:30;52100.66;;;-142.34;37.36
12951;BME280;6540;50.858;7.232;2024-01-15T10:59:55;52090.56;;;-142.34;38.06
12951;BME280;6540;50.858;7.232;2024-01-15T11:02:21;52054.25;;;-142.34;39.81
12951;BME280;6540;50.858;7.232;2024-01-15T11:04:46;52132.94;;;-142.34;37.92
12951;BME280;6540;50.858;7.232;2024-01-15T11:07:13;52044.19;;;-142.34;38.59
12951;BME280;6540;50.858;7.232;2024-01-15T11:09:39;52092.59;;;-142.34;38.83
12951;BME280;6540;50.858;7.232;2024-01-15T11:12:10;52062.34;;;-142.34;39.43
12951;BME280;6540;50.858;7.232;2024-01-15T11:14:40;52048.22;;;-142.34;39.19
12951;BME280;6540;50.858;7.232;2024-01-15T11:17:09;52076.44;;;-142.34;37.07
12951;BME280;6540;50.858;7.232;2024-01-15T11:19:36;52110.75;;;-142.34;39.40
12951;BME280;6540;50.858;7.232;2024-01-15T11:22:02;52076.44;;;-142.34;37.96
12951;BME280;6540;50.858;7.232;2024-01-15T11:27:01;52080.50;;;-142.34;38.78
12951;BME280;6540;50.858;7.232;2024-01-15T11:34:21;52122.84;;;-142.34;38.18
12951;BME280;6540;50.858;7.232;2024-01-15T11:37:06;52108.72;;;-142.34;36.78
12951;BME280;6540;50.858;7.232;2024-01-15T11:42:01;52080.50;;;-142.34;37.58
12951;BME280;6540;50.858;7.232;2024-01-15T11:44:28;52112.75;;;-142.34;37.15
12951;BME280;6540;50.858;7.232;2024-01-15T11:47:03;52134.97;;;-142.34;38.88
12951;BME280;6540;50.858;7.232;2024-01-15T11:52:21;52066.38;;;-142.34;36.95
12951;BME280;6540;50.858;7.232;2024-01-15T12:00:05;52104.69;;;-142.34;38.30
12951;BME280;6540;50.858;7.232;2024-01-15T12:02:31;52104.69;;;-142.34;38.68
12951;BME280;6540;50.858;7.232;2024-01-15T12:04:56;52100.66;;;-142.34;38.07
12951;BME280;6540;50.858;7.232;2024-01-15T12:07:21;52112.75;;;-142.34;37.53
12951;BME280;6540;50.858;7.232;2024-01-15T12:09:47;52092.59;;;-142.34;38.91
12951;BME280;6540;50.858;7.232;2024-01-15T12:12:23;52116.81;;;-142.34;37.94
12951;BME280;6540;50.858;7.232;2024-01-15T12:14:50;52118.81;;;-142.34;38.52
12951;BME280;6540;50.858;7.232;2024-01-15T12:17:16;52084.53;;;-142.34;38.25
12951;BME280;6540;50.858;7.232;2024-01-15T12:19:41;52124.88;;;-142.34;39.15
12951;BME280;6540;50.858;7.232;2024-01-15T12:22:06;52100.66;;;-142.34;39.26
12951;BME280;6540;50.858;7.232;2024-01-15T12:24:32;52106.72;;;-142.34;37.02
12951;BME280;6540;50.858;7.232;2024-01-15T12:26:57;52096.63;;;-142.34;37.47
12951;BME280;6540;50.858;7.232;2024-01-15T12:29:23;52116.81;;;-142.34;37.50
12951;BME280;6540;50.858;7.232;2024-01-15T12:31:48;52112.75;;;-142.34;38.19
12951;BME280;6540;50.858;7.232;2024-01-15T12:34:13;52116.81;;;-142.34;37.50
12951;BME280;6540;50.858;7.232;2024-01-15T12:36:40;52104.69;;;-142.34;38.78
12951;BME280;6540;50.858;7.232;2024-01-15T12:39:05;52104.69;;;-142.34;38.45
12951;BME280;6540;50.858;7.232;2024-01-15T12:41:34;52092.59;;;-142.34;38.52
12951;BME280;6540;50.858;7.232;2024-01-15T12:44:00;52056.28;;;-142.34;37.44
12951;BME280;6540;50.858;7.232;2024-01-15T12:46:25;52126.88;;;-142.34;36.90
12951;BME280;6540;50.858;7.232;2024-01-15T12:48:50;52108.72;;;-142.34;38.18
12951;BME280;6540;50.858;7.232;2024-01-15T12:51:16;52096.63;;;-142.34;38.15
12951;BME280;6540;50.858;7.232;2024-01-15T12:53:41;52100.66;;;-142.34;37.14
12951;BME280;6540;50.858;7.232;2024-01-15T12:56:06;52098.66;;;-142.34;37.14
12951;BME280;6540;50.858;7.232;2024-01-15T12:58:32;52088.56;;;-142.34;37.03
12951;BME280;6540;50.858;7.232;2024-01-15T13:00:57;52128.91;;;-142.34;37.50